sensor_id;sensor_type;location;lat;lon;timestamp;temperature;humidity
2407;DHT22;37709;53.480;9.688;2022-11-06T00:01:45;8.40;99.90
2407;DHT22;37709;53.480;9.688;2022-11-06T00:04:12;8.40;99.90
2407;DHT22;37709;53.480;9.688;2022-11-06T00:06:39;8.40;99.90
2407;DHT22;37709;53.480;9.688;2022-11-06T00:09:18;8.50;99.90
2407;DHT22;37709;53.480;9.688;2022-11-06T00:11:49;8.50;99.90
2407;DHT22;37709;53.480;9.688;2022-11-06T00:14:17;8.50;99.90
2407;DHT22;37709;53.480;9.688;2022-11-06T00:16:45;8.60;99.90
2407;DHT22;37709;53.480;9.688;2022-11-06T00:19:13;8.60;99.90
2407;DHT22;37709;53.480;9.688;2022-11-06T00:21:40;8.60;99.90
2407;DHT22;37709;53.480;9.688;2022-11-06T00:24:10;8.50;99.90
2407;DHT22;37709;53.480;9.688;2022-11-06T00:26:38;8.40;99.90
2407;DHT22;37709;53.480;9.688;2022-11-06T00:29:05;8.40;99.90
2407;DHT22;37709;53.480;9.688;2022-11-06T00:31:35;8.40;99.90
2407;DHT22;37709;53.480;9.688;2022-11-06T00:34:04;8.40;99.90
2407;DHT22;37709;53.480;9.688;2022-11-06T00:36:34;8.30;99.90
2407;DHT22;37709;53.480;9.688;2022-11-06T00:39:02;8.20;99.90
2407;DHT22;37709;53.480;9.688;2022-11-06T00:41:29;8.00;99.90
2407;DHT22;37709;53.480;9.688;2022-11-06T00:43:59;8.00;99.90
2407;DHT22;37709;53.480;9.688;2022-11-06T00:46:26;7.90;99.90
2407;DHT22;37709;53.480;9.688;2022-11-06T00:48:54;7.80;99.90
2407;DHT22;37709;53.480;9.688;2022-11-06T00:51:25;7.70;99.90
2407;DHT22;37709;53.480;9.688;2022-11-06T00:53:54;7.70;99.90
2407;DHT22;37709;53.480;9.688;2022-11-06T00:56:22;7.70;99.90
2407;DHT22;37709;53.480;9.688;2022-11-06T00:58:49;7.60;99.90
2407;DHT22;37709;53.480;9.688;2022-11-06T01:03:53;7.60;99.90
2407;DHT22;37709;53.480;9.688;2022-11-06T01:06:22;7.70;99.90
2407;DHT22;37709;53.480;9.688;2022-11-06T01:08:50;7.70;99.90
2407;DHT22;37709;53.480;9.688;2022-11-06T01:11:27;7.70;99.90
2407;DHT22;37709;53.480;9.688;2022-11-06T01:14:14;7.70;99.90
2407;DHT22;37709;53.480;9.688;2022-11-06T01:16:42;7.70;99.90
2407;DHT22;37709;53.480;9.688;2022-11-06T01:19:11;7.70;99.90
2407;DHT22;37709;53.480;9.688;2022-11-06T01:21:40;7.70;99.90
2407;DHT22;37709;53.480;9.688;2022-11-06T01:24:14;7.70;99.90
2407;DHT22;37709;53.480;9.688;2022-11-06T01:26:42;7.80;99.90
2407;DHT22;37709;53.480;9.688;2022-11-06T01:29:30;7.80;99.90
2407;DHT22;37709;53.480;9.688;2022-11-06T01:31:57;7.90;99.90
2407;DHT22;37709;53.480;9.688;2022-11-06T01:34:25;7.90;99.90
2407;DHT22;37709;53.480;9.688;2022-11-06T01:36:52;8.00;99.90
2407;DHT22;37709;53.480;9.688;2022-11-06T01:39:19;7.90;99.90
2407;DHT22;37709;53.480;9.688;2022-11-06T01:41:49;7.90;99.90
2407;DHT22;37709;53.480;9.688;2022-11-06T01:47:25;8.00;99.90
2407;DHT22;37709;53.480;9.688;2022-11-06T01:49:56;8.00;99.90
2407;DHT22;37709;53.480;9.688;2022-11-06T01:52:24;8.00;99.90
2407;DHT22;37709;53.480;9.688;2022-11-06T01:54:56;8.00;99.90
2407;DHT22;37709;53.480;9.688;2022-11-06T01:57:25;8.10;99.90
2407;DHT22;37709;53.480;9.688;2022-11-06T01:59:53;8.10;99.90
2407;DHT22;37709;53.480;9.688;2022-11-06T02:02:21;8.20;99.90
2407;DHT22;37709;53.480;9.688;2022-11-06T02:04:49;8.20;99.90
2407;DHT22;37709;53.480;9.688;2022-11-06T02:07:18;8.20;99.90
2407;DHT22;37709;53.480;9.688;2022-11-06T02:09:46;8.20;99.90
2407;DHT22;37709;53.480;9.688;2022-11-06T02:12:44;8.30;99.90
2407;DHT22;37709;53.480;9.688;2022-11-06T02:15:24;8.30;99.90
2407;DHT22;37709;53.480;9.688;2022-11-06T02:18:15;8.30;99.90
2407;DHT22;37709;53.480;9.688;2022-11-06T02:21:11;8.30;99.90
2407;DHT22;37709;53.480;9.688;2022-11-06T02:29:20;8.30;99.90
2407;DHT22;37709;53.480;9.688;2022-11-06T02:31:51;8.30;99.90
2407;DHT22;37709;53.480;9.688;2022-11-06T02:34:23;8.40;99.90
2407;DHT22;37709;53.480;9.688;2022-11-06T02:37:03;8.30;99.90
2407;DHT22;37709;53.480;9.688;2022-11-06T02:39:35;8.30;99.90
2407;DHT22;37709;53.480;9.688;2022-11-06T02:42:06;8.40;99.90
2407;DHT22;37709;53.480;9.688;2022-11-06T02:44:36;8.40;99.90
2407;DHT22;37709;53.480;9.688;2022-11-06T02:47:08;8.50;99.90
2407;DHT22;37709;53.480;9.688;2022-11-06T02:49:45;8.50;99.90
2407;DHT22;37709;53.480;9.688;2022-11-06T02:54:53;8.60;99.90
2407;DHT22;37709;53.480;9.688;2022-11-06T02:57:24;8.60;99.90
2407;DHT22;37709;53.480;9.688;2022-11-06T03:00:04;8.70;99.90
2407;DHT22;37709;53.480;9.688;2022-11-06T03:02:36;8.70;99.90
2407;DHT22;37709;53.480;9.688;2022-11-06T03:08:02;8.70;99.90
2407;DHT22;37709;53.480;9.688;2022-11-06T03:10:41;8.70;99.90
2407;DHT22;37709;53.480;9.688;2022-11-06T03:13:18;8.70;99.90
2407;DHT22;37709;53.480;9.688;2022-11-06T03:15:57;8.70;99.90
2407;DHT22;37709;53.480;9.688;2022-11-06T03:18:40;8.70;99.90
2407;DHT22;37709;53.480;9.688;2022-11-06T03:21:20;8.70;99.90
2407;DHT22;37709;53.480;9.688;2022-11-06T03:23:58;8.70;99.90
2407;DHT22;37709;53.480;9.688;2022-11-06T03:26:34;8.80;99.90
2407;DHT22;37709;53.480;9.688;2022-11-06T03:29:18;8.80;99.90
2407;DHT22;37709;53.480;9.688;2022-11-06T03:31:55;8.90;99.90
2407;DHT22;37709;53.480;9.688;2022-11-06T03:34:28;8.90;99.90
2407;DHT22;37709;53.480;9.688;2022-11-06T03:37:04;8.90;99.90
2407;DHT22;37709;53.480;9.688;2022-11-06T03:39:40;8.90;99.90
2407;DHT22;37709;53.480;9.688;2022-11-06T03:42:12;8.90;99.90
2407;DHT22;37709;53.480;9.688;2022-11-06T03:44:45;9.00;99.90
2407;DHT22;37709;53.480;9.688;2022-11-06T03:47:27;9.00;99.90
2407;DHT22;37709;53.480;9.688;2022-11-06T03:50:04;9.00;99.90
2407;DHT22;37709;53.480;9.688;2022-11-06T03:52:39;9.00;99.90
2407;DHT22;37709;53.480;9.688;2022-11-06T03:55:17;9.00;99.90
2407;DHT22;37709;53.480;9.688;2022-11-06T03:57:51;8.80;99.90
2407;DHT22;37709;53.480;9.688;2022-11-06T04:00:20;8.60;99.90
2407;DHT22;37709;53.480;9.688;2022-11-06T04:03:01;8.40;99.90
2407;DHT22;37709;53.480;9.688;2022-11-06T04:05:44;8.30;99.90
2407;DHT22;37709;53.480;9.688;2022-11-06T04:08:15;8.30;99.90
2407;DHT22;37709;53.480;9.688;2022-11-06T04:11:03;8.30;99.90
2407;DHT22;37709;53.480;9.688;2022-11-06T04:13:51;8.20;99.90
2407;DHT22;37709;53.480;9.688;2022-11-06T04:16:40;8.20;99.90
2407;DHT22;37709;53.480;9.688;2022-11-06T04:19:17;8.20;99.90
2407;DHT22;37709;53.480;9.688;2022-11-06T04:22:11;8.30;99.90
2407;DHT22;37709;53.480;9.688;2022-11-06T04:24:58;8.40;99.90
2407;DHT22;37709;53.480;9.688;2022-11-06T04:28:02;8.40;99.90
2407;DHT22;37709;53.480;9.688;2022-11-06T04:30:38;8.50;99.90
2407;DHT22;37709;53.480;9.688;2022-11-06T04:33:17;8.50;99.90
2407;DHT22;37709;53.480;9.688;2022-11-06T04:39:04;8.40;99.90
2407;DHT22;37709;53.480;9.688;2022-11-06T04:42:04;8.30;99.90
2407;DHT22;37709;53.480;9.688;2022-11-06T04:44:38;8.30;99.90
2407;DHT22;37709;53.480;9.688;2022-11-06T04:47:09;8.20;99.90
2407;DHT22;37709;53.480;9.688;2022-11-06T04:49:40;8.20;99.90
2407;DHT22;37709;53.480;9.688;2022-11-06T04:52:14;8.20;99.90
2407;DHT22;37709;53.480;9.688;2022-11-06T04:54:44;8.30;99.90
2407;DHT22;37709;53.480;9.688;2022-11-06T04:57:12;8.30;99.90
2407;DHT22;37709;53.480;9.688;2022-11-06T04:59:40;8.30;99.90
2407;DHT22;37709;53.480;9.688;2022-11-06T05:02:07;8.30;99.90
2407;DHT22;37709;53.480;9.688;2022-11-06T05:04:34;8.30;99.90
2407;DHT22;37709;53.480;9.688;2022-11-06T05:07:02;8.20;99.90
2407;DHT22;37709;53.480;9.688;2022-11-06T05:09:29;8.20;99.90
2407;DHT22;37709;53.480;9.688;2022-11-06T05:11:56;8.30;99.90
2407;DHT22;37709;53.480;9.688;2022-11-06T05:14:24;8.40;99.90
2407;DHT22;37709;53.480;9.688;2022-11-06T05:16:51;8.50;99.90
2407;DHT22;37709;53.480;9.688;2022-11-06T05:19:18;8.60;99.90
2407;DHT22;37709;53.480;9.688;2022-11-06T05:21:45;8.60;99.90
2407;DHT22;37709;53.480;9.688;2022-11-06T05:24:31;8.50;99.90
2407;DHT22;37709;53.480;9.688;2022-11-06T05:26:58;8.40;99.90
2407;DHT22;37709;53.480;9.688;2022-11-06T05:29:26;8.40;99.90
2407;DHT22;37709;53.480;9.688;2022-11-06T05:31:53;8.40;99.90
2407;DHT22;37709;53.480;9.688;2022-11-06T05:34:20;8.20;99.90
2407;DHT22;37709;53.480;9.688;2022-11-06T05:36:47;8.20;99.90
2407;DHT22;37709;53.480;9.688;2022-11-06T05:39:15;8.20;99.90
2407;DHT22;37709;53.480;9.688;2022-11-06T05:41:42;8.20;99.90
2407;DHT22;37709;53.480;9.688;2022-11-06T05:44:09;8.30;99.90
2407;DHT22;37709;53.480;9.688;2022-11-06T05:46:37;8.30;99.90
2407;DHT22;37709;53.480;9.688;2022-11-06T05:49:20;8.20;99.90
2407;DHT22;37709;53.480;9.688;2022-11-06T05:51:47;8.30;99.90
2407;DHT22;37709;53.480;9.688;2022-11-06T05:54:14;8.20;99.90
2407;DHT22;37709;53.480;9.688;2022-11-06T05:56:42;8.20;99.90
2407;DHT22;37709;53.480;9.688;2022-11-06T05:59:09;8.10;99.90
2407;DHT22;37709;53.480;9.688;2022-11-06T06:01:36;8.10;99.90
2407;DHT22;37709;53.480;9.688;2022-11-06T06:04:04;8.10;99.90
2407;DHT22;37709;53.480;9.688;2022-11-06T06:06:31;8.00;99.90
2407;DHT22;37709;53.480;9.688;2022-11-06T06:08:59;7.90;99.90
2407;DHT22;37709;53.480;9.688;2022-11-06T06:11:26;7.80;99.90
2407;DHT22;37709;53.480;9.688;2022-11-06T06:13:53;7.80;99.90
2407;DHT22;37709;53.480;9.688;2022-11-06T06:16:20;7.60;99.90
2407;DHT22;37709;53.480;9.688;2022-11-06T06:18:48;7.60;99.90
2407;DHT22;37709;53.480;9.688;2022-11-06T06:21:17;7.60;99.90
2407;DHT22;37709;53.480;9.688;2022-11-06T06:23:45;7.50;99.90
2407;DHT22;37709;53.480;9.688;2022-11-06T06:26:12;7.40;99.90
2407;DHT22;37709;53.480;9.688;2022-11-06T06:28:39;7.40;99.90
2407;DHT22;37709;53.480;9.688;2022-11-06T06:31:07;7.40;99.90
2407;DHT22;37709;53.480;9.688;2022-11-06T06:33:36;7.40;99.90
2407;DHT22;37709;53.480;9.688;2022-11-06T06:36:04;7.40;99.90
2407;DHT22;37709;53.480;9.688;2022-11-06T06:38:32;7.50;99.90
2407;DHT22;37709;53.480;9.688;2022-11-06T06:41:04;7.60;99.90
2407;DHT22;37709;53.480;9.688;2022-11-06T06:43:32;7.70;99.90
2407;DHT22;37709;53.480;9.688;2022-11-06T06:46:04;7.80;99.90
2407;DHT22;37709;53.480;9.688;2022-11-06T06:48:32;7.90;99.90
2407;DHT22;37709;53.480;9.688;2022-11-06T06:51:00;7.90;99.90
2407;DHT22;37709;53.480;9.688;2022-11-06T06:53:28;8.00;99.90
2407;DHT22;37709;53.480;9.688;2022-11-06T06:55:59;8.00;99.90
2407;DHT22;37709;53.480;9.688;2022-11-06T06:58:30;8.10;99.90
2407;DHT22;37709;53.480;9.688;2022-11-06T07:01:00;8.10;99.90
2407;DHT22;37709;53.480;9.688;2022-11-06T07:03:29;8.20;99.90
2407;DHT22;37709;53.480;9.688;2022-11-06T07:05:59;8.20;99.90
2407;DHT22;37709;53.480;9.688;2022-11-06T07:08:27;8.20;99.90
2407;DHT22;37709;53.480;9.688;2022-11-06T07:11:02;8.10;99.90
2407;DHT22;37709;53.480;9.688;2022-11-06T07:13:30;8.10;99.90
2407;DHT22;37709;53.480;9.688;2022-11-06T07:16:04;8.10;99.90
2407;DHT22;37709;53.480;9.688;2022-11-06T07:18:33;8.00;99.90
2407;DHT22;37709;53.480;9.688;2022-11-06T07:21:04;8.00;99.90
2407;DHT22;37709;53.480;9.688;2022-11-06T07:23:33;8.00;99.90
2407;DHT22;37709;53.480;9.688;2022-11-06T07:26:02;8.20;99.90
2407;DHT22;37709;53.480;9.688;2022-11-06T07:28:31;8.40;99.90
2407;DHT22;37709;53.480;9.688;2022-11-06T07:31:03;8.70;99.90
2407;DHT22;37709;53.480;9.688;2022-11-06T07:33:31;8.90;99.90
2407;DHT22;37709;53.480;9.688;2022-11-06T07:36:08;8.90;99.90
2407;DHT22;37709;53.480;9.688;2022-11-06T07:38:36;8.80;99.90
2407;DHT22;37709;53.480;9.688;2022-11-06T07:41:06;8.80;99.90
2407;DHT22;37709;53.480;9.688;2022-11-06T07:43:35;8.80;99.90
2407;DHT22;37709;53.480;9.688;2022-11-06T07:46:05;8.90;99.90
2407;DHT22;37709;53.480;9.688;2022-11-06T07:48:33;8.90;99.90
2407;DHT22;37709;53.480;9.688;2022-11-06T07:51:05;9.00;99.90
2407;DHT22;37709;53.480;9.688;2022-11-06T07:53:37;9.00;99.90
2407;DHT22;37709;53.480;9.688;2022-11-06T07:56:05;9.00;99.90
2407;DHT22;37709;53.480;9.688;2022-11-06T07:58:32;9.10;99.90
2407;DHT22;37709;53.480;9.688;2022-11-06T08:01:00;9.30;99.90
2407;DHT22;37709;53.480;9.688;2022-11-06T08:03:27;9.50;99.90
2407;DHT22;37709;53.480;9.688;2022-11-06T08:06:01;9.70;99.90
2407;DHT22;37709;53.480;9.688;2022-11-06T08:08:29;9.80;99.90
2407;DHT22;37709;53.480;9.688;2022-11-06T08:11:02;9.90;99.90
2407;DHT22;37709;53.480;9.688;2022-11-06T08:13:29;9.90;99.90
2407;DHT22;37709;53.480;9.688;2022-11-06T08:15:56;9.90;99.90
2407;DHT22;37709;53.480;9.688;2022-11-06T08:18:23;10.00;99.90
2407;DHT22;37709;53.480;9.688;2022-11-06T08:20:51;10.10;99.90
2407;DHT22;37709;53.480;9.688;2022-11-06T08:23:18;10.20;99.90
2407;DHT22;37709;53.480;9.688;2022-11-06T08:25:46;10.30;99.90
2407;DHT22;37709;53.480;9.688;2022-11-06T08:28:13;10.30;99.90
2407;DHT22;37709;53.480;9.688;2022-11-06T08:30:42;10.40;99.90
2407;DHT22;37709;53.480;9.688;2022-11-06T08:33:10;10.60;99.90
2407;DHT22;37709;53.480;9.688;2022-11-06T08:35:37;10.80;99.90
2407;DHT22;37709;53.480;9.688;2022-11-06T08:38:04;11.20;99.90
2407;DHT22;37709;53.480;9.688;2022-11-06T08:40:32;11.00;99.90
2407;DHT22;37709;53.480;9.688;2022-11-06T08:43:01;10.80;99.90
2407;DHT22;37709;53.480;9.688;2022-11-06T08:45:29;10.80;99.90
2407;DHT22;37709;53.480;9.688;2022-11-06T08:48:00;11.00;99.90
2407;DHT22;37709;53.480;9.688;2022-11-06T08:50:28;11.40;99.90
2407;DHT22;37709;53.480;9.688;2022-11-06T08:52:56;12.50;99.90
2407;DHT22;37709;53.480;9.688;2022-11-06T08:55:24;12.30;99.90
2407;DHT22;37709;53.480;9.688;2022-11-06T08:57:54;12.30;99.90
2407;DHT22;37709;53.480;9.688;2022-11-06T09:00:21;12.60;99.90
2407;DHT22;37709;53.480;9.688;2022-11-06T09:02:49;13.90;99.90
2407;DHT22;37709;53.480;9.688;2022-11-06T09:05:16;13.70;99.90
2407;DHT22;37709;53.480;9.688;2022-11-06T09:07:43;13.20;99.90
2407;DHT22;37709;53.480;9.688;2022-11-06T09:10:10;14.40;99.90
2407;DHT22;37709;53.480;9.688;2022-11-06T09:12:38;15.00;99.90
2407;DHT22;37709;53.480;9.688;2022-11-06T09:15:06;14.20;99.90
2407;DHT22;37709;53.480;9.688;2022-11-06T09:17:33;13.90;99.90
2407;DHT22;37709;53.480;9.688;2022-11-06T09:20:00;13.50;99.90
2407;DHT22;37709;53.480;9.688;2022-11-06T09:22:28;13.70;99.90
2407;DHT22;37709;53.480;9.688;2022-11-06T09:24:55;13.60;99.90
2407;DHT22;37709;53.480;9.688;2022-11-06T09:27:31;13.40;99.90
2407;DHT22;37709;53.480;9.688;2022-11-06T09:29:58;13.40;99.90
2407;DHT22;37709;53.480;9.688;2022-11-06T09:32:25;13.70;99.90
2407;DHT22;37709;53.480;9.688;2022-11-06T09:34:52;13.30;99.90
2407;DHT22;37709;53.480;9.688;2022-11-06T09:37:19;13.00;99.90
2407;DHT22;37709;53.480;9.688;2022-11-06T09:39:47;12.80;99.90
2407;DHT22;37709;53.480;9.688;2022-11-06T09:45:11;12.80;99.90
2407;DHT22;37709;53.480;9.688;2022-11-06T09:47:45;12.90;99.90
2407;DHT22;37709;53.480;9.688;2022-11-06T09:50:33;12.80;99.90
2407;DHT22;37709;53.480;9.688;2022-11-06T09:53:07;12.80;99.90
2407;DHT22;37709;53.480;9.688;2022-11-06T09:55:40;12.60;99.90
2407;DHT22;37709;53.480;9.688;2022-11-06T09:58:20;12.40;99.90
2407;DHT22;37709;53.480;9.688;2022-11-06T10:00:51;13.70;99.90
2407;DHT22;37709;53.480;9.688;2022-11-06T10:03:58;17.50;99.90
2407;DHT22;37709;53.480;9.688;2022-11-06T10:06:27;20.30;96.50
2407;DHT22;37709;53.480;9.688;2022-11-06T10:08:58;20.90;94.10
2407;DHT22;37709;53.480;9.688;2022-11-06T10:12:07;19.50;93.50
2407;DHT22;37709;53.480;9.688;2022-11-06T10:20:18;15.10;99.40
2407;DHT22;37709;53.480;9.688;2022-11-06T10:23:03;14.80;99.90
2407;DHT22;37709;53.480;9.688;2022-11-06T10:25:50;14.60;99.90
2407;DHT22;37709;53.480;9.688;2022-11-06T10:28:28;14.40;99.90
2407;DHT22;37709;53.480;9.688;2022-11-06T10:31:19;14.50;99.90
2407;DHT22;37709;53.480;9.688;2022-11-06T10:36:27;14.80;99.90
2407;DHT22;37709;53.480;9.688;2022-11-06T10:38:58;15.60;99.90
2407;DHT22;37709;53.480;9.688;2022-11-06T10:41:28;16.30;99.60
2407;DHT22;37709;53.480;9.688;2022-11-06T10:44:18;16.90;98.60
2407;DHT22;37709;53.480;9.688;2022-11-06T10:47:18;17.00;98.50
2407;DHT22;37709;53.480;9.688;2022-11-06T10:49:52;17.30;98.20
2407;DHT22;37709;53.480;9.688;2022-11-06T10:55:38;19.50;97.40
2407;DHT22;37709;53.480;9.688;2022-11-06T10:58:18;22.30;93.00
2407;DHT22;37709;53.480;9.688;2022-11-06T11:00:46;22.90;91.30
2407;DHT22;37709;53.480;9.688;2022-11-06T11:03:34;23.90;90.60
2407;DHT22;37709;53.480;9.688;2022-11-06T11:06:02;24.40;87.60
2407;DHT22;37709;53.480;9.688;2022-11-06T11:08:37;25.10;85.00
2407;DHT22;37709;53.480;9.688;2022-11-06T11:11:17;23.90;85.40
2407;DHT22;37709;53.480;9.688;2022-11-06T11:16:28;23.50;85.10
2407;DHT22;37709;53.480;9.688;2022-11-06T11:19:52;25.00;83.20
2407;DHT22;37709;53.480;9.688;2022-11-06T11:25:02;26.10;79.10
2407;DHT22;37709;53.480;9.688;2022-11-06T11:27:42;25.00;77.80
2407;DHT22;37709;53.480;9.688;2022-11-06T11:30:19;25.40;79.10
2407;DHT22;37709;53.480;9.688;2022-11-06T11:32:48;24.40;78.00
2407;DHT22;37709;53.480;9.688;2022-11-06T11:35:19;22.30;81.00
2407;DHT22;37709;53.480;9.688;2022-11-06T11:37:47;22.80;82.60
2407;DHT22;37709;53.480;9.688;2022-11-06T11:40:26;21.40;83.40
2407;DHT22;37709;53.480;9.688;2022-11-06T11:46:11;20.70;85.60
2407;DHT22;37709;53.480;9.688;2022-11-06T11:48:47;21.40;84.70
2407;DHT22;37709;53.480;9.688;2022-11-06T11:51:39;23.80;80.90
2407;DHT22;37709;53.480;9.688;2022-11-06T11:59:51;17.90;90.00
2407;DHT22;37709;53.480;9.688;2022-11-06T12:02:41;17.40;91.20
2407;DHT22;37709;53.480;9.688;2022-11-06T12:05:14;17.30;91.30
2407;DHT22;37709;53.480;9.688;2022-11-06T12:07:47;17.20;91.80
2407;DHT22;37709;53.480;9.688;2022-11-06T12:12:52;16.70;92.60
2407;DHT22;37709;53.480;9.688;2022-11-06T12:15:38;16.40;92.80
2407;DHT22;37709;53.480;9.688;2022-11-06T12:18:11;16.20;93.60
2407;DHT22;37709;53.480;9.688;2022-11-06T12:26:25;15.40;94.80
2407;DHT22;37709;53.480;9.688;2022-11-06T12:29:00;15.40;95.30
2407;DHT22;37709;53.480;9.688;2022-11-06T12:31:41;15.50;95.50
2407;DHT22;37709;53.480;9.688;2022-11-06T12:34:30;15.70;95.40
2407;DHT22;37709;53.480;9.688;2022-11-06T12:37:12;16.10;95.20
2407;DHT22;37709;53.480;9.688;2022-11-06T12:42:36;17.10;94.30
2407;DHT22;37709;53.480;9.688;2022-11-06T12:45:10;17.10;94.80
2407;DHT22;37709;53.480;9.688;2022-11-06T12:48:05;17.30;94.20
2407;DHT22;37709;53.480;9.688;2022-11-06T12:50:44;17.40;94.10
2407;DHT22;37709;53.480;9.688;2022-11-06T12:53:34;17.40;93.70
2407;DHT22;37709;53.480;9.688;2022-11-06T12:56:18;18.70;93.00
2407;DHT22;37709;53.480;9.688;2022-11-06T12:59:13;22.00;91.40
2407;DHT22;37709;53.480;9.688;2022-11-06T13:01:59;23.80;86.90
2407;DHT22;37709;53.480;9.688;2022-11-06T13:04:53;24.40;84.70
2407;DHT22;37709;53.480;9.688;2022-11-06T13:07:51;24.80;82.80
2407;DHT22;37709;53.480;9.688;2022-11-06T13:10:32;23.40;83.10
2407;DHT22;37709;53.480;9.688;2022-11-06T13:15:49;22.40;83.00
2407;DHT22;37709;53.480;9.688;2022-11-06T13:18:30;21.80;85.20
2407;DHT22;37709;53.480;9.688;2022-11-06T13:21:04;21.30;85.20
2407;DHT22;37709;53.480;9.688;2022-11-06T13:23:38;20.90;86.80
2407;DHT22;37709;53.480;9.688;2022-11-06T13:28:58;19.90;88.40
2407;DHT22;37709;53.480;9.688;2022-11-06T13:31:34;20.20;88.60
2407;DHT22;37709;53.480;9.688;2022-11-06T13:34:04;20.10;87.70
2407;DHT22;37709;53.480;9.688;2022-11-06T13:36:34;19.10;89.00
2407;DHT22;37709;53.480;9.688;2022-11-06T13:39:23;19.00;90.20
2407;DHT22;37709;53.480;9.688;2022-11-06T13:41:54;18.40;90.80
2407;DHT22;37709;53.480;9.688;2022-11-06T13:44:23;18.10;91.40
2407;DHT22;37709;53.480;9.688;2022-11-06T13:47:03;17.20;91.50
2407;DHT22;37709;53.480;9.688;2022-11-06T13:49:45;16.20;92.50
2407;DHT22;37709;53.480;9.688;2022-11-06T13:52:25;15.40;93.40
2407;DHT22;37709;53.480;9.688;2022-11-06T13:55:22;14.80;94.20
2407;DHT22;37709;53.480;9.688;2022-11-06T14:01:01;14.40;95.50
2407;DHT22;37709;53.480;9.688;2022-11-06T14:06:36;14.00;96.30
2407;DHT22;37709;53.480;9.688;2022-11-06T14:11:35;13.80;97.00
2407;DHT22;37709;53.480;9.688;2022-11-06T14:14:13;13.70;97.20
2407;DHT22;37709;53.480;9.688;2022-11-06T14:17:19;13.60;97.30
2407;DHT22;37709;53.480;9.688;2022-11-06T14:20:00;13.40;97.50
2407;DHT22;37709;53.480;9.688;2022-11-06T14:22:33;13.20;97.50
2407;DHT22;37709;53.480;9.688;2022-11-06T14:36:32;13.00;99.00
2407;DHT22;37709;53.480;9.688;2022-11-06T14:39:00;12.90;99.60
2407;DHT22;37709;53.480;9.688;2022-11-06T14:46:37;12.60;99.90
2407;DHT22;37709;53.480;9.688;2022-11-06T14:49:20;12.50;99.90
2407;DHT22;37709;53.480;9.688;2022-11-06T14:52:07;12.40;99.90
2407;DHT22;37709;53.480;9.688;2022-11-06T14:54:39;12.30;99.90
2407;DHT22;37709;53.480;9.688;2022-11-06T14:57:10;12.20;99.90
2407;DHT22;37709;53.480;9.688;2022-11-06T14:59:42;12.10;99.90
2407;DHT22;37709;53.480;9.688;2022-11-06T15:02:22;12.10;99.90
2407;DHT22;37709;53.480;9.688;2022-11-06T15:04:58;12.00;99.90
2407;DHT22;37709;53.480;9.688;2022-11-06T15:15:47;11.80;99.90
2407;DHT22;37709;53.480;9.688;2022-11-06T15:18:18;11.80;99.90
2407;DHT22;37709;53.480;9.688;2022-11-06T15:20:57;11.70;99.90
2407;DHT22;37709;53.480;9.688;2022-11-06T15:23:53;11.60;99.90
2407;DHT22;37709;53.480;9.688;2022-11-06T15:26:35;11.50;99.90
2407;DHT22;37709;53.480;9.688;2022-11-06T15:31:45;11.50;99.90
2407;DHT22;37709;53.480;9.688;2022-11-06T15:34:31;11.40;99.90
2407;DHT22;37709;53.480;9.688;2022-11-06T15:37:22;11.30;99.90
2407;DHT22;37709;53.480;9.688;2022-11-06T15:39:54;11.30;99.90
2407;DHT22;37709;53.480;9.688;2022-11-06T15:42:35;11.20;99.90
2407;DHT22;37709;53.480;9.688;2022-11-06T15:45:08;11.10;99.90
2407;DHT22;37709;53.480;9.688;2022-11-06T15:47:35;11.10;99.90
2407;DHT22;37709;53.480;9.688;2022-11-06T15:50:17;11.20;99.90
2407;DHT22;37709;53.480;9.688;2022-11-06T15:52:46;11.10;99.90
2407;DHT22;37709;53.480;9.688;2022-11-06T15:55:25;11.10;99.90
2407;DHT22;37709;53.480;9.688;2022-11-06T15:57:54;11.00;99.90
2407;DHT22;37709;53.480;9.688;2022-11-06T16:00:33;11.00;99.90
2407;DHT22;37709;53.480;9.688;2022-11-06T16:03:03;10.90;99.90
2407;DHT22;37709;53.480;9.688;2022-11-06T16:05:34;10.90;99.90
2407;DHT22;37709;53.480;9.688;2022-11-06T16:08:05;10.90;99.90
2407;DHT22;37709;53.480;9.688;2022-11-06T16:10:34;10.90;99.90
2407;DHT22;37709;53.480;9.688;2022-11-06T16:13:02;10.90;99.90
2407;DHT22;37709;53.480;9.688;2022-11-06T16:20:44;10.80;99.90
2407;DHT22;37709;53.480;9.688;2022-11-06T16:23:17;10.80;99.90
2407;DHT22;37709;53.480;9.688;2022-11-06T16:25:45;10.70;99.90
2407;DHT22;37709;53.480;9.688;2022-11-06T16:28:20;10.60;99.90
2407;DHT22;37709;53.480;9.688;2022-11-06T16:30:48;10.50;99.90
2407;DHT22;37709;53.480;9.688;2022-11-06T16:33:20;10.40;99.90
2407;DHT22;37709;53.480;9.688;2022-11-06T16:35:50;10.40;99.90
2407;DHT22;37709;53.480;9.688;2022-11-06T16:38:39;10.30;99.90
2407;DHT22;37709;53.480;9.688;2022-11-06T16:41:10;10.30;99.90
2407;DHT22;37709;53.480;9.688;2022-11-06T16:43:38;10.30;99.90
2407;DHT22;37709;53.480;9.688;2022-11-06T16:46:06;10.30;99.90
2407;DHT22;37709;53.480;9.688;2022-11-06T16:48:36;10.40;99.90
2407;DHT22;37709;53.480;9.688;2022-11-06T16:51:09;10.30;99.90
2407;DHT22;37709;53.480;9.688;2022-11-06T16:53:55;10.20;99.90
2407;DHT22;37709;53.480;9.688;2022-11-06T16:56:28;10.30;99.90
2407;DHT22;37709;53.480;9.688;2022-11-06T16:59:07;10.30;99.90
2407;DHT22;37709;53.480;9.688;2022-11-06T17:01:45;10.30;99.90
2407;DHT22;37709;53.480;9.688;2022-11-06T17:04:24;10.40;99.90
2407;DHT22;37709;53.480;9.688;2022-11-06T17:06:53;10.30;99.90
2407;DHT22;37709;53.480;9.688;2022-11-06T17:09:32;10.30;99.90
2407;DHT22;37709;53.480;9.688;2022-11-06T17:12:00;10.20;99.90
2407;DHT22;37709;53.480;9.688;2022-11-06T17:14:29;10.10;99.90
2407;DHT22;37709;53.480;9.688;2022-11-06T17:16:59;10.10;99.90
2407;DHT22;37709;53.480;9.688;2022-11-06T17:19:27;10.20;99.90
2407;DHT22;37709;53.480;9.688;2022-11-06T17:21:55;10.10;99.90
2407;DHT22;37709;53.480;9.688;2022-11-06T17:24:24;10.10;99.90
2407;DHT22;37709;53.480;9.688;2022-11-06T17:27:07;10.10;99.90
2407;DHT22;37709;53.480;9.688;2022-11-06T17:29:34;10.10;99.90
2407;DHT22;37709;53.480;9.688;2022-11-06T17:32:03;10.20;99.90
2407;DHT22;37709;53.480;9.688;2022-11-06T17:34:31;10.20;99.90
2407;DHT22;37709;53.480;9.688;2022-11-06T17:36:58;10.20;99.90
2407;DHT22;37709;53.480;9.688;2022-11-06T17:39:25;10.10;99.90
2407;DHT22;37709;53.480;9.688;2022-11-06T17:41:53;10.10;99.90
2407;DHT22;37709;53.480;9.688;2022-11-06T17:44:20;10.10;99.90
2407;DHT22;37709;53.480;9.688;2022-11-06T17:46:49;10.00;99.90
2407;DHT22;37709;53.480;9.688;2022-11-06T17:49:17;10.10;99.90
2407;DHT22;37709;53.480;9.688;2022-11-06T17:51:46;10.20;99.90
2407;DHT22;37709;53.480;9.688;2022-11-06T17:54:21;10.20;99.90
2407;DHT22;37709;53.480;9.688;2022-11-06T17:56:49;10.20;99.90
2407;DHT22;37709;53.480;9.688;2022-11-06T17:59:17;10.20;99.90
2407;DHT22;37709;53.480;9.688;2022-11-06T18:01:45;10.10;99.90
2407;DHT22;37709;53.480;9.688;2022-11-06T18:04:20;10.10;99.90
2407;DHT22;37709;53.480;9.688;2022-11-06T18:06:49;10.10;99.90
2407;DHT22;37709;53.480;9.688;2022-11-06T18:09:19;10.10;99.90
2407;DHT22;37709;53.480;9.688;2022-11-06T18:11:52;10.10;99.90
2407;DHT22;37709;53.480;9.688;2022-11-06T18:14:21;10.00;99.90
2407;DHT22;37709;53.480;9.688;2022-11-06T18:16:49;10.10;99.90
2407;DHT22;37709;53.480;9.688;2022-11-06T18:19:19;10.00;99.90
2407;DHT22;37709;53.480;9.688;2022-11-06T18:21:47;10.00;99.90